Time;durP1;ratioP1;P1;durP2;ratioP2;P2;SDS_P1;SDS_P2;PMS_P1;PMS_P2;Temp;Humidity;BMP_temperature;BMP_pressure;BME280_temperature;BME280_humidity;BME280_pressure;Samples;Min_cycle;Max_cycle;Signal;HPM_P1;HPM_P2
2021/07/30 00:02:07;;;;;;;;;;;;;;;19.37;62.29;97824.44;1759237;79;24979;-87
2021/07/30 00:04:33;;;;;;;;;;;;;;;19.31;62.38;97817.20;1751596;81;22661;-87
2021/07/30 00:06:59;;;;;;;;;;;;;;;19.24;62.43;97817.08;1744069;82;25963;-87
2021/07/30 00:09:25;;;;;;;;;;;;;;;19.22;62.50;97815.92;1769044;80;20944;-87
2021/07/30 00:11:51;;;;;;;;;;;;;;;19.25;62.57;97817.41;1766375;80;20516;-87
2021/07/30 00:14:16;;;;;;;;;;;;;;;19.25;62.62;97817.41;1770649;80;20210;-87
2021/07/30 00:16:42;;;;;;;;;;;;;;;19.20;62.69;97817.91;1755714;80;20272;-87
2021/07/30 00:19:08;;;;;;;;;;;;;;;19.22;62.77;97817.75;1720597;82;20997;-87
2021/07/30 00:21:34;;;;;;;;;;;;;;;19.22;62.81;97823.05;1735179;81;24481;-87
2021/07/30 00:24:00;;;;;;;;;;;;;;;19.21;62.89;97814.27;1737543;82;20235;-87
2021/07/30 00:26:26;;;;;;;;;;;;;;;19.20;62.99;97813.14;1729637;82;24557;-88
2021/07/30 00:28:52;;;;;;;;;;;;;;;19.18;63.05;97813.80;1720848;82;21868;-87
2021/07/30 00:31:18;;;;;;;;;;;;;;;19.10;63.12;97809.86;1748929;81;21020;-87
2021/07/30 00:33:46;;;;;;;;;;;;;;;19.09;63.17;97814.88;1748357;81;25466;-87
2021/07/30 00:36:12;;;;;;;;;;;;;;;19.02;63.22;97812.09;1749758;81;20293;-87
2021/07/30 00:38:38;;;;;;;;;;;;;;;19.02;63.25;97812.59;1753980;81;20212;-87
2021/07/30 00:41:04;;;;;;;;;;;;;;;18.99;63.26;97813.75;1751164;80;22039;-87
2021/07/30 00:43:30;;;;;;;;;;;;;;;18.95;63.27;97823.06;1752343;81;26035;-87
2021/07/30 00:45:58;;;;;;;;;;;;;;;18.92;63.30;97820.77;1751010;81;20297;-87
2021/07/30 00:48:24;;;;;;;;;;;;;;;18.91;63.34;97820.94;1749566;81;20211;-86
2021/07/30 00:50:51;;;;;;;;;;;;;;;18.87;63.37;97817.81;1749315;81;24998;-87
2021/07/30 00:53:18;;;;;;;;;;;;;;;18.88;63.40;97818.62;1750889;81;22131;-87
2021/07/30 00:55:46;;;;;;;;;;;;;;;18.88;63.44;97815.47;1749337;81;25975;-87
2021/07/30 00:58:13;;;;;;;;;;;;;;;18.90;63.48;97819.28;1717235;81;24605;-87
2021/07/30 01:00:40;;;;;;;;;;;;;;;18.87;63.51;97820.97;1751624;81;20437;-87
2021/07/30 01:03:06;;;;;;;;;;;;;;;18.84;63.53;97824.78;1750174;81;24834;-87
2021/07/30 01:05:34;;;;;;;;;;;;;;;18.86;63.59;97827.27;1749059;81;23031;-87
2021/07/30 01:08:04;;;;;;;;;;;;;;;18.87;63.63;97820.97;1752003;81;26148;-87
2021/07/30 01:10:30;;;;;;;;;;;;;;;18.86;63.64;97817.48;1746296;81;24559;-88
2021/07/30 01:13:00;;;;;;;;;;;;;;;18.83;63.68;97815.66;1746410;81;20530;-86
2021/07/30 01:15:26;;;;;;;;;;;;;;;18.84;63.74;97818.64;1750073;81;24834;-85
2021/07/30 01:17:53;;;;;;;;;;;;;;;18.83;63.77;97819.14;1729603;81;20256;-87
2021/07/30 01:20:21;;;;;;;;;;;;;;;18.86;63.81;97809.53;1737543;81;26002;-86
2021/07/30 01:22:51;;;;;;;;;;;;;;;18.86;63.86;97813.51;1727477;81;24715;-87
2021/07/30 01:25:20;;;;;;;;;;;;;;;18.88;63.93;97810.66;1732953;81;20185;-86
2021/07/30 01:27:47;;;;;;;;;;;;;;;18.88;63.96;97812.81;1731758;81;24834;-89
2021/07/30 01:30:13;;;;;;;;;;;;;;;18.88;63.98;97808.84;1735254;81;22060;-87
2021/07/30 01:32:39;;;;;;;;;;;;;;;18.87;64.04;97810.36;1750531;81;26204;-87
2021/07/30 01:35:07;;;;;;;;;;;;;;;18.84;64.06;97813.34;1753865;81;20917;-86
2021/07/30 01:37:33;;;;;;;;;;;;;;;18.84;64.11;97808.04;1725442;81;20698;-86
2021/07/30 01:39:59;;;;;;;;;;;;;;;18.83;64.17;97804.56;1714598;82;24785;-85
2021/07/30 01:42:27;;;;;;;;;;;;;;;18.82;64.19;97805.55;1702015;82;20811;-85
2021/07/30 01:44:53;;;;;;;;;;;;;;;18.82;64.24;97807.41;1722400;81;26145;-86
2021/07/30 01:47:22;;;;;;;;;;;;;;;18.78;64.26;97809.06;1707929;82;20883;-85
2021/07/30 01:49:48;;;;;;;;;;;;;;;18.77;64.31;97803.43;1722057;82;20228;-85
2021/07/30 01:52:14;;;;;;;;;;;;;;;18.75;64.33;97812.08;1718363;82;24774;-85
2021/07/30 01:54:40;;;;;;;;;;;;;;;18.75;64.40;97801.47;1699220;82;21820;-85
2021/07/30 01:57:07;;;;;;;;;;;;;;;18.77;64.45;97805.25;1704792;82;21125;-85
2021/07/30 01:59:33;;;;;;;;;;;;;;;18.76;64.50;97800.45;1708075;82;24468;-85
2021/07/30 02:02:03;;;;;;;;;;;;;;;18.75;64.56;97809.42;1702289;82;20259;-85
2021/07/30 02:04:27;;;;;;;;;;;;;;;18.77;64.61;97806.58;1700699;82;24756;-85
2021/07/30 02:06:53;;;;;;;;;;;;;;;18.76;64.67;97801.77;1736718;80;22001;-85
2021/07/30 02:09:19;;;;;;;;;;;;;;;18.73;64.72;97807.44;1727742;81;21155;-85
2021/07/30 02:11:53;;;;;;;;;;;;;;;18.72;64.75;97807.11;1724605;81;20309;-85
2021/07/30 02:14:20;;;;;;;;;;;;;;;18.70;64.82;97810.45;1736746;81;20502;-86
2021/07/30 02:16:49;;;;;;;;;;;;;;;18.69;64.88;97810.12;1762045;80;24810;-85
2021/07/30 02:19:17;;;;;;;;;;;;;;;18.71;64.93;97809.42;1765929;80;22799;-85
2021/07/30 02:21:43;;;;;;;;;;;;;;;18.72;65.00;97804.45;1755949;79;26075;-86
2021/07/30 02:24:09;;;;;;;;;;;;;;;18.72;65.09;97800.48;1731796;82;24590;-85
2021/07/30 02:26:38;;;;;;;;;;;;;;;18.72;65.11;97804.95;1775410;80;20314;-86
2021/07/30 02:29:04;;;;;;;;;;;;;;;18.66;65.17;97809.12;1759136;80;24832;-86
2021/07/30 02:31:36;;;;;;;;;;;;;;;18.59;65.26;97808.18;1741188;81;21958;-86
2021/07/30 02:34:02;;;;;;;;;;;;;;;18.51;65.35;97811.31;1733851;82;26158;-87
2021/07/30 02:36:28;;;;;;;;;;;;;;;18.40;65.50;97805.89;1747083;80;20263;-87
2021/07/30 02:38:54;;;;;;;;;;;;;;;18.37;65.60;97806.25;1768899;80;20201;-87
2021/07/30 02:41:23;;;;;;;;;;;;;;;18.35;65.70;97809.06;1770627;80;25635;-87
2021/07/30 02:43:49;;;;;;;;;;;;;;;18.34;65.83;97802.60;1739709;80;21838;-88
2021/07/30 02:46:21;;;;;;;;;;;;;;;18.32;65.93;97804.61;1767725;79;26017;-87
2021/07/30 02:48:47;;;;;;;;;;;;;;;18.38;66.01;97801.28;1776040;79;24704;-87
2021/07/30 02:51:13;;;;;;;;;;;;;;;18.48;66.11;97804.55;1766405;79;20926;-87
2021/07/30 02:53:45;;;;;;;;;;;;;;;18.61;66.18;97807.48;1768425;80;25569;-87
2021/07/30 02:56:11;;;;;;;;;;;;;;;18.63;66.21;97813.95;1768084;80;22077;-86
2021/07/30 02:58:37;;;;;;;;;;;;;;;18.59;66.26;97804.20;1761484;80;20966;-87
2021/07/30 03:01:04;;;;;;;;;;;;;;;18.67;66.34;97808.13;1764944;80;25055;-87
2021/07/30 03:03:30;;;;;;;;;;;;;;;18.76;66.39;97809.73;1771690;80;20946;-86
2021/07/30 03:05:57;;;;;;;;;;;;;;;18.77;66.45;97806.58;1767626;80;24939;-86
2021/07/30 03:08:29;;;;;;;;;;;;;;;18.78;66.46;97814.86;1723666;80;22934;-86
2021/07/30 03:10:55;;;;;;;;;;;;;;;18.79;66.46;97805.42;1731758;82;25991;-86
2021/07/30 03:13:26;;;;;;;;;;;;;;;18.81;66.49;97806.58;1732955;81;24486;-86
2021/07/30 03:15:55;;;;;;;;;;;;;;;18.77;66.46;97812.71;1757160;80;20205;-86
2021/07/30 03:18:22;;;;;;;;;;;;;;;18.77;66.51;97811.88;1701349;82;24822;-87
2021/07/30 03:20:48;;;;;;;;;;;;;;;18.77;66.55;97813.20;1725768;82;21742;-86
2021/07/30 03:23:14;;;;;;;;;;;;;;;18.79;66.61;97815.20;1700075;82;26116;-86
2021/07/30 03:25:46;;;;;;;;;;;;;;;18.74;66.62;97814.39;1702382;83;20883;-86
2021/07/30 03:28:12;;;;;;;;;;;;;;;18.72;66.63;97817.70;1699458;82;20613;-86
2021/07/30 03:30:38;;;;;;;;;;;;;;;18.72;66.67;97819.03;1694385;84;24756;-86
2021/07/30 03:33:04;;;;;;;;;;;;;;;18.70;66.71;97817.08;1727079;82;20287;-86
2021/07/30 03:35:33;;;;;;;;;;;;;;;18.70;66.71;97818.90;1727119;82;21050;-86
2021/07/30 03:37:59;;;;;;;;;;;;;;;18.71;66.79;97817.91;1724816;82;24501;-86
2021/07/30 03:40:25;;;;;;;;;;;;;;;18.74;66.83;97822.84;1728401;81;20270;-86
2021/07/30 03:42:52;;;;;;;;;;;;;;;18.74;66.86;97821.02;1727737;82;24918;-86
2021/07/30 03:45:19;;;;;;;;;;;;;;;18.73;66.90;97820.69;1729553;81;22066;-86
2021/07/30 03:47:45;;;;;;;;;;;;;;;18.74;66.92;97816.22;1725332;82;26051;-86
2021/07/30 03:50:16;;;;;;;;;;;;;;;18.71;66.94;97814.73;1724090;82;20292;-87
2021/07/30 03:52:42;;;;;;;;;;;;;;;18.72;67.00;97821.69;1723888;82;20335;-87
2021/07/30 03:55:09;;;;;;;;;;;;;;;18.76;67.02;97820.33;1725485;82;24965;-87
2021/07/30 03:57:36;;;;;;;;;;;;;;;18.83;67.05;97826.27;1727850;82;21989;-87
2021/07/30 04:00:03;;;;;;;;;;;;;;;18.87;67.10;97826.27;1676901;84;26053;-87
2021/07/30 04:02:29;;;;;;;;;;;;;;;18.93;67.16;97825.05;1706005;83;24528;-87
2021/07/30 04:04:59;;;;;;;;;;;;;;;19.00;67.22;97819.88;1732709;81;20361;-86
2021/07/30 04:07:25;;;;;;;;;;;;;;;19.06;67.25;97825.81;1703644;82;39979;-86
2021/07/30 04:09:54;;;;;;;;;;;;;;;19.09;67.28;97833.44;1732654;81;20946;-86
2021/07/30 04:12:21;;;;;;;;;;;;;;;19.12;67.26;97831.25;1733401;82;28196;-85
2021/07/30 04:14:56;;;;;;;;;;;;;;;19.17;67.28;97836.85;1730270;81;24404;-86
2021/07/30 04:17:24;;;;;;;;;;;;;;;19.21;67.30;97836.81;1735488;80;20243;-86
2021/07/30 04:19:53;;;;;;;;;;;;;;;19.26;67.33;97838.94;1731874;82;25519;-86
2021/07/30 04:22:19;;;;;;;;;;;;;;;19.29;67.36;97833.30;1733444;82;22159;-86
2021/07/30 04:24:46;;;;;;;;;;;;;;;19.28;67.43;97834.79;1740237;82;26000;-86
2021/07/30 04:27:11;;;;;;;;;;;;;;;19.28;67.49;97832.97;1765574;80;20904;-86
2021/07/30 04:29:38;;;;;;;;;;;;;;;19.29;67.52;97833.80;1766167;80;20392;-85
2021/07/30 04:32:06;;;;;;;;;;;;;;;19.25;67.57;97835.98;1763744;79;24858;-86
2021/07/30 04:34:32;;;;;;;;;;;;;;;19.21;67.63;97838.14;1773330;80;22806;-86
2021/07/30 04:36:58;;;;;;;;;;;;;;;19.19;67.67;97844.64;1769691;80;26002;-86
2021/07/30 04:39:24;;;;;;;;;;;;;;;19.20;67.76;97844.97;1766351;80;20302;-86
2021/07/30 04:41:50;;;;;;;;;;;;;;;19.30;67.87;97842.91;1766221;80;20331;-87
2021/07/30 04:44:16;;;;;;;;;;;;;;;19.47;68.01;97847.14;1738149;82;20271;-87
2021/07/30 04:46:48;;;;;;;;;;;;;;;19.66;68.11;97847.14;1730487;80;21962;-87
2021/07/30 04:49:14;;;;;;;;;;;;;;;19.82;68.15;97840.36;1761841;80;25921;-87
2021/07/30 04:51:40;;;;;;;;;;;;;;;19.98;68.17;97848.68;1766959;78;20372;-87
2021/07/30 04:54:09;;;;;;;;;;;;;;;20.04;68.18;97846.13;1735860;81;20873;-87
2021/07/30 04:56:40;;;;;;;;;;;;;;;20.10;68.17;97851.72;1762136;80;24830;-86
2021/07/30 04:59:06;;;;;;;;;;;;;;;20.11;68.13;97856.87;1738063;82;21995;-86
2021/07/30 05:01:32;;;;;;;;;;;;;;;20.14;68.10;97859.14;1739280;80;26043;-87
2021/07/30 05:03:58;;;;;;;;;;;;;;;20.18;68.10;97859.13;1771882;80;24523;-86
2021/07/30 05:06:25;;;;;;;;;;;;;;;20.19;68.12;97856.77;1769245;80;20332;-86
2021/07/30 05:08:51;;;;;;;;;;;;;;;20.24;68.10;97857.05;1765776;80;24228;-86
2021/07/30 05:11:17;;;;;;;;;;;;;;;20.28;68.12;97857.03;1739564;82;22101;-86
2021/07/30 05:13:43;;;;;;;;;;;;;;;20.36;68.10;97855.62;1732152;80;25977;-87
2021/07/30 05:16:10;;;;;;;;;;;;;;;20.43;68.10;97860.54;1749474;81;20236;-87
2021/07/30 05:18:36;;;;;;;;;;;;;;;20.55;68.07;97857.42;1739207;81;20172;-88
2021/07/30 05:21:09;;;;;;;;;;;;;;;20.60;68.02;97859.02;1744327;80;24934;-88
2021/07/30 05:23:36;;;;;;;;;;;;;;;20.63;67.96;97859.97;1724863;82;21628;-88
2021/07/30 05:26:02;;;;;;;;;;;;;;;20.70;67.94;97851.59;1724961;82;21067;-87
2021/07/30 05:28:28;;;;;;;;;;;;;;;20.78;67.89;97849.64;1773895;80;24328;-87
2021/07/30 05:30:55;;;;;;;;;;;;;;;20.91;67.86;97850.81;1746426;81;20300;-87
2021/07/30 05:33:21;;;;;;;;;;;;;;;20.98;67.82;97850.41;1713860;82;24816;-87
2021/07/30 05:35:47;;;;;;;;;;;;;;;21.06;67.79;97845.78;1734982;80;22034;-87
2021/07/30 05:38:13;;;;;;;;;;;;;;;21.08;67.70;97855.74;1771247;80;26009;-87
2021/07/30 05:40:41;;;;;;;;;;;;;;;21.10;67.62;97856.89;1766198;80;20549;-88
2021/07/30 05:43:07;;;;;;;;;;;;;;;21.13;67.57;97849.34;1770151;80;20264;-89
2021/07/30 05:45:35;;;;;;;;;;;;;;;21.18;67.53;97853.63;1767355;80;20395;-89
2021/07/30 05:48:01;;;;;;;;;;;;;;;21.17;67.49;97846.66;1771101;80;21941;-87
2021/07/30 05:50:27;;;;;;;;;;;;;;;21.16;67.42;97845.53;1772887;79;25920;-87
2021/07/30 05:52:53;;;;;;;;;;;;;;;21.21;67.40;97842.63;1752263;81;24657;-87
2021/07/30 05:55:19;;;;;;;;;;;;;;;21.26;67.38;97846.88;1745276;81;20309;-87
2021/07/30 05:57:45;;;;;;;;;;;;;;;21.27;67.35;97839.72;1760014;80;24735;-87
2021/07/30 06:00:13;;;;;;;;;;;;;;;21.32;67.31;97841.30;1773761;80;22038;-87
2021/07/30 06:02:41;;;;;;;;;;;;;;;21.38;67.26;97845.88;1761654;80;26628;-87
2021/07/30 06:05:07;;;;;;;;;;;;;;;21.46;67.25;97843.58;1734101;82;24478;-87
2021/07/30 06:07:33;;;;;;;;;;;;;;;21.52;67.20;97840.98;1725763;82;20764;-87
2021/07/30 06:09:59;;;;;;;;;;;;;;;21.58;67.16;97838.89;1733557;82;24902;-87
2021/07/30 06:12:31;;;;;;;;;;;;;;;21.65;67.09;97848.28;1744730;81;20218;-87
2021/07/30 06:14:56;;;;;;;;;;;;;;;21.69;67.00;97845.55;1732755;81;26265;-87
2021/07/30 06:17:22;;;;;;;;;;;;;;;21.74;66.84;97847.12;1744437;81;20794;-87
2021/07/30 06:19:51;;;;;;;;;;;;;;;21.80;66.78;97841.03;1729095;81;20261;-87
2021/07/30 06:22:18;;;;;;;;;;;;;;;21.85;66.66;97843.94;1736766;81;24640;-87
2021/07/30 06:24:44;;;;;;;;;;;;;;;21.91;66.55;97841.02;1739137;81;22034;-86
2021/07/30 06:27:12;;;;;;;;;;;;;;;21.95;66.46;97844.45;1741505;81;20893;-87
2021/07/30 06:29:38;;;;;;;;;;;;;;;21.97;66.34;97844.27;1738679;81;24605;-87
2021/07/30 06:32:04;;;;;;;;;;;;;;;21.97;66.25;97843.77;1743997;82;20335;-87
2021/07/30 06:34:30;;;;;;;;;;;;;;;22.02;66.25;97849.84;1746622;80;24667;-87
2021/07/30 06:36:56;;;;;;;;;;;;;;;22.06;66.20;97848.43;1730952;81;20237;-86
2021/07/30 06:39:22;;;;;;;;;;;;;;;22.07;66.10;97842.91;1715423;83;25883;-86
2021/07/30 06:41:48;;;;;;;;;;;;;;;22.09;66.02;97842.73;1726246;82;24521;-86
2021/07/30 06:44:17;;;;;;;;;;;;;;;22.15;65.96;97845.13;1735306;82;20226;-86
2021/07/30 06:46:46;;;;;;;;;;;;;;;22.24;65.94;97845.28;1731494;82;25004;-86
2021/07/30 06:49:12;;;;;;;;;;;;;;;22.30;65.87;97847.17;1734568;82;21970;-86
2021/07/30 06:51:41;;;;;;;;;;;;;;;22.34;65.78;97848.42;1731525;82;26105;-86
2021/07/30 06:54:08;;;;;;;;;;;;;;;22.40;65.63;97847.64;1735448;82;24531;-86
2021/07/30 06:56:34;;;;;;;;;;;;;;;22.43;65.53;97844.56;1732037;82;20338;-87
2021/07/30 06:59:00;;;;;;;;;;;;;;;22.49;65.40;97845.95;1736121;82;24820;-86
2021/07/30 07:01:26;;;;;;;;;;;;;;;22.55;65.29;97836.34;1736424;82;21981;-86
2021/07/30 07:03:53;;;;;;;;;;;;;;;22.60;65.18;97839.73;1732984;82;21137;-87
2021/07/30 07:06:20;;;;;;;;;;;;;;;22.66;65.03;97838.95;1735830;82;24460;-86
2021/07/30 07:08:46;;;;;;;;;;;;;;;22.71;64.89;97849.38;1727217;82;20243;-87
2021/07/30 07:11:12;;;;;;;;;;;;;;;22.72;64.79;97845.69;1732371;82;24854;-86
2021/07/30 07:13:42;;;;;;;;;;;;;;;22.77;64.69;97839.25;1743016;82;22107;-87
2021/07/30 07:16:08;;;;;;;;;;;;;;;22.83;64.53;97841.12;1744880;81;25983;-85
2021/07/30 07:18:34;;;;;;;;;;;;;;;22.92;64.35;97843.92;1761199;79;20849;-85
2021/07/30 07:21:00;;;;;;;;;;;;;;;23.02;64.15;97841.41;1766925;79;20279;-85
2021/07/30 07:23:26;;;;;;;;;;;;;;;23.08;64.02;97836.58;1757346;81;20423;-85
2021/07/30 07:25:52;;;;;;;;;;;;;;;23.13;63.89;97833.62;1774406;80;22024;-85
2021/07/30 07:28:19;;;;;;;;;;;;;;;23.23;63.79;97831.92;1735946;80;25995;-85
2021/07/30 07:30:45;;;;;;;;;;;;;;;23.32;63.57;97825.36;1731909;80;24465;-85
2021/07/30 07:33:11;;;;;;;;;;;;;;;23.43;63.41;97827.94;1733732;81;20651;-86
2021/07/30 07:35:37;;;;;;;;;;;;;;;23.55;63.16;97823.17;1740106;80;25095;-86
2021/07/30 07:38:04;;;;;;;;;;;;;;;23.70;63.05;97825.12;1775058;80;20306;-86
2021/07/30 07:40:38;;;;;;;;;;;;;;;23.84;62.93;97822.47;1755199;79;25994;-87
2021/07/30 07:43:04;;;;;;;;;;;;;;;23.86;62.69;97827.08;1770360;79;24541;-86
2021/07/30 07:45:30;;;;;;;;;;;;;;;23.87;62.38;97834.08;1727123;80;20808;-87
2021/07/30 07:47:56;;;;;;;;;;;;;;;23.87;62.14;97829.55;1750386;81;24808;-86
2021/07/30 07:50:22;;;;;;;;;;;;;;;23.96;62.00;97826.14;1747222;81;21938;-85
2021/07/30 07:52:51;;;;;;;;;;;;;;;24.05;61.88;97831.61;1748776;81;26356;-85
2021/07/30 07:55:18;;;;;;;;;;;;;;;24.09;61.70;97835.50;1747085;80;24620;-85
2021/07/30 07:57:44;;;;;;;;;;;;;;;24.15;61.53;97836.84;1748001;81;20290;-85
2021/07/30 08:00:10;;;;;;;;;;;;;;;24.08;61.37;97825.32;1744492;82;24817;-89
2021/07/30 08:02:36;;;;;;;;;;;;;;;24.07;61.17;97838.38;1741502;82;21971;-88
2021/07/30 08:05:02;;;;;;;;;;;;;;;24.12;61.01;97839.91;1767322;80;20898;-89
2021/07/30 08:07:29;;;;;;;;;;;;;;;24.22;60.91;97845.41;1770670;79;24469;-86
2021/07/30 08:09:55;;;;;;;;;;;;;;;24.28;60.76;97843.20;1718895;80;20396;-86
2021/07/30 08:12:21;;;;;;;;;;;;;;;24.39;60.66;97840.72;1734605;82;24747;-86
2021/07/30 08:14:47;;;;;;;;;;;;;;;24.51;60.58;97831.55;1770679;79;21986;-86
2021/07/30 08:17:14;;;;;;;;;;;;;;;24.59;60.46;97827.31;1770317;80;25987;-85
2021/07/30 08:19:41;;;;;;;;;;;;;;;24.56;60.28;97835.23;1730359;80;24441;-86
2021/07/30 08:22:08;;;;;;;;;;;;;;;24.56;60.14;97829.88;1732695;81;20160;-85
2021/07/30 08:24:34;;;;;;;;;;;;;;;24.61;60.06;97826.56;1733579;80;24505;-85
2021/07/30 08:27:06;;;;;;;;;;;;;;;24.66;59.97;97819.27;1721620;82;22178;-86
2021/07/30 08:29:32;;;;;;;;;;;;;;;24.63;59.83;97825.03;1716207;82;26233;-85
2021/07/30 08:31:58;;;;;;;;;;;;;;;24.64;59.69;97818.65;1749788;81;20304;-85
2021/07/30 08:34:27;;;;;;;;;;;;;;;24.70;59.53;97816.47;1741399;81;20595;-87
2021/07/30 08:36:53;;;;;;;;;;;;;;;24.75;59.36;97818.81;1749036;81;24769;-87
2021/07/30 08:39:19;;;;;;;;;;;;;;;24.82;59.33;97814.23;1751160;81;21979;-87
2021/07/30 08:41:47;;;;;;;;;;;;;;;24.89;59.26;97810.23;1746826;81;26004;-86
2021/07/30 08:44:13;;;;;;;;;;;;;;;24.99;59.26;97808.73;1738133;80;24426;-86
2021/07/30 08:46:41;;;;;;;;;;;;;;;25.09;59.18;97805.62;1754914;81;20222;-86
2021/07/30 08:49:08;;;;;;;;;;;;;;;25.17;59.09;97798.66;1753585;81;25404;-87
2021/07/30 08:51:36;;;;;;;;;;;;;;;25.20;58.90;97804.11;1750297;81;22743;-87
2021/07/30 08:54:02;;;;;;;;;;;;;;;25.24;58.90;97794.60;1750777;81;26669;-87
2021/07/30 08:56:28;;;;;;;;;;;;;;;25.33;58.80;97795.46;1752002;80;24401;-87
2021/07/30 08:58:54;;;;;;;;;;;;;;;25.41;58.71;97791.20;1722109;81;20380;-87
2021/07/30 09:01:20;;;;;;;;;;;;;;;25.48;58.67;97785.77;1710323;83;20234;-86
2021/07/30 09:03:46;;;;;;;;;;;;;;;25.55;58.56;97783.05;1698874;82;20261;-86
2021/07/30 09:06:14;;;;;;;;;;;;;;;25.61;58.24;97776.84;1710399;82;26192;-87
2021/07/30 09:08:40;;;;;;;;;;;;;;;25.66;57.98;97781.86;1720349;82;24698;-87
2021/07/30 09:11:25;;;;;;;;;;;;;;;25.76;57.90;97780.02;1729704;82;20841;-87
2021/07/30 09:13:51;;;;;;;;;;;;;;;25.84;57.75;97782.44;1718251;82;24872;-87
2021/07/30 09:16:17;;;;;;;;;;;;;;;25.88;57.51;97777.44;1716400;82;22019;-87
2021/07/30 09:18:46;;;;;;;;;;;;;;;25.95;57.28;97780.89;1728827;80;26046;-85
2021/07/30 09:21:17;;;;;;;;;;;;;;;26.03;57.19;97772.03;1742552;82;25239;-85
2021/07/30 09:23:51;;;;;;;;;;;;;;;26.03;56.83;97771.20;1748342;80;20251;-85
2021/07/30 09:26:34;;;;;;;;;;;;;;;26.05;56.54;97761.91;1718005;82;26061;-85
2021/07/30 09:29:02;;;;;;;;;;;;;;;26.10;56.37;97753.20;1745297;82;21898;-86
2021/07/30 09:31:46;;;;;;;;;;;;;;;26.20;56.34;97754.31;1747290;82;25519;-85
2021/07/30 09:34:26;;;;;;;;;;;;;;;26.29;56.22;97752.21;1745966;82;24545;-85
2021/07/30 09:37:00;;;;;;;;;;;;;;;26.35;56.10;97749.95;1733304;82;20258;-85
2021/07/30 09:39:28;;;;;;;;;;;;;;;26.42;55.99;97748.53;1751331;82;24728;-85
2021/07/30 09:41:55;;;;;;;;;;;;;;;26.49;55.88;97743.92;1743712;82;21897;-85
2021/07/30 09:44:21;;;;;;;;;;;;;;;26.54;55.68;97751.59;1749085;82;26038;-85
2021/07/30 09:47:06;;;;;;;;;;;;;;;26.63;55.53;97740.02;1750745;82;20457;-85
2021/07/30 09:49:36;;;;;;;;;;;;;;;26.71;55.38;97741.06;1738846;82;20583;-85
2021/07/30 09:52:06;;;;;;;;;;;;;;;26.76;55.15;97732.32;1750400;82;24765;-85
2021/07/30 09:54:33;;;;;;;;;;;;;;;26.82;55.03;97733.58;1748415;82;22011;-85
2021/07/30 09:57:00;;;;;;;;;;;;;;;26.89;54.92;97731.66;1751774;82;25978;-85
2021/07/30 09:59:28;;;;;;;;;;;;;;;26.92;54.51;97726.34;1741993;82;24365;-87
2021/07/30 10:01:54;;;;;;;;;;;;;;;26.95;54.28;97720.50;1740209;82;20319;-86
2021/07/30 10:04:22;;;;;;;;;;;;;;;26.98;54.07;97716.86;1741889;82;24810;-85
2021/07/30 10:06:49;;;;;;;;;;;;;;;27.03;53.83;97712.95;1750882;82;22019;-89
2021/07/30 10:09:17;;;;;;;;;;;;;;;27.10;53.68;97710.70;1749090;82;25976;-89
2021/07/30 10:11:44;;;;;;;;;;;;;;;27.14;53.57;97702.47;1747174;82;24321;-89
2021/07/30 10:14:12;;;;;;;;;;;;;;;27.09;53.38;97698.31;1746772;82;20209;-89
2021/07/30 10:16:43;;;;;;;;;;;;;;;27.13;53.32;97693.59;1749943;82;24818;-85
2021/07/30 10:19:09;;;;;;;;;;;;;;;27.18;53.21;97687.52;1721297;82;22174;-85
2021/07/30 10:21:35;;;;;;;;;;;;;;;27.23;53.05;97684.95;1733941;82;21060;-86
2021/07/30 10:24:01;;;;;;;;;;;;;;;27.28;52.97;97685.08;1732860;82;24491;-85
2021/07/30 10:26:29;;;;;;;;;;;;;;;27.33;52.81;97681.20;1732906;82;20388;-85
2021/07/30 10:29:10;;;;;;;;;;;;;;;27.37;52.51;97681.84;1732984;82;25586;-85
2021/07/30 10:31:52;;;;;;;;;;;;;;;27.42;52.24;97677.11;1732630;82;22072;-85
2021/07/30 10:34:37;;;;;;;;;;;;;;;27.45;52.08;97672.59;1722877;82;26688;-85
2021/07/30 10:37:03;;;;;;;;;;;;;;;27.52;51.99;97674.69;1731195;82;25312;-85
2021/07/30 10:39:31;;;;;;;;;;;;;;;27.58;51.74;97669.72;1732240;82;20464;-86
2021/07/30 10:42:12;;;;;;;;;;;;;;;27.65;51.43;97668.27;1732684;82;25455;-86
2021/07/30 10:44:57;;;;;;;;;;;;;;;27.71;51.10;97667.33;1730004;82;21921;-86
2021/07/30 10:47:23;;;;;;;;;;;;;;;27.79;51.01;97660.23;1729463;82;26127;-86
2021/07/30 10:49:49;;;;;;;;;;;;;;;27.85;50.86;97661.47;1728569;81;24429;-86
2021/07/30 10:52:19;;;;;;;;;;;;;;;27.87;50.57;97657.20;1732315;82;20277;-86
2021/07/30 10:54:48;;;;;;;;;;;;;;;27.91;50.35;97650.29;1729395;82;25221;-86
2021/07/30 10:57:45;;;;;;;;;;;;;;;27.97;50.23;97653.38;1732151;82;22044;-86
2021/07/30 11:00:08;;;;;;;;;;;;;;;28.06;50.14;97646.57;1728654;82;26783;-86
2021/07/30 11:02:53;;;;;;;;;;;;;;;28.13;49.88;97650.51;1732797;82;24578;-88
2021/07/30 11:05:20;;;;;;;;;;;;;;;28.19;49.72;97655.77;1728185;82;20299;-88
2021/07/30 11:07:50;;;;;;;;;;;;;;;28.27;49.66;97655.90;1729971;82;24822;-88
2021/07/30 11:10:17;;;;;;;;;;;;;;;28.30;49.47;97654.09;1758973;81;22535;-88
2021/07/30 11:12:43;;;;;;;;;;;;;;;28.33;49.16;97660.33;1756746;81;26167;-88
2021/07/30 11:15:12;;;;;;;;;;;;;;;28.33;48.90;97652.25;1753472;81;20263;-88
2021/07/30 11:17:38;;;;;;;;;;;;;;;28.36;48.67;97650.97;1733041;82;20480;-88
2021/07/30 11:20:07;;;;;;;;;;;;;;;28.36;48.47;97646.94;1731517;82;24855;-86
2021/07/30 11:22:35;;;;;;;;;;;;;;;28.39;48.46;97647.27;1737315;82;22029;-86
2021/07/30 11:25:01;;;;;;;;;;;;;;;28.43;48.38;97642.20;1773578;80;26720;-86
2021/07/30 11:27:28;;;;;;;;;;;;;;;28.42;48.10;97645.42;1738533;82;24462;-85
2021/07/30 11:30:03;;;;;;;;;;;;;;;28.46;47.90;97646.60;1743019;81;20296;-86
2021/07/30 11:32:30;;;;;;;;;;;;;;;28.48;47.60;97648.50;1755284;80;24769;-85
2021/07/30 11:34:56;;;;;;;;;;;;;;;28.53;47.56;97639.73;1763401;80;22683;-85
2021/07/30 11:37:30;;;;;;;;;;;;;;;28.57;47.46;97640.35;1761432;80;21029;-85
2021/07/30 11:39:57;;;;;;;;;;;;;;;28.59;47.24;97638.22;1737734;80;24501;-86
2021/07/30 11:42:26;;;;;;;;;;;;;;;28.60;46.95;97632.30;1730366;82;20264;-85
2021/07/30 11:44:52;;;;;;;;;;;;;;;28.58;46.78;97632.57;1742657;81;24806;-86
2021/07/30 11:47:21;;;;;;;;;;;;;;;28.63;46.74;97634.53;1745697;81;22636;-85
2021/07/30 11:50:03;;;;;;;;;;;;;;;28.67;46.76;97629.77;1753215;81;26018;-85
2021/07/30 11:52:38;;;;;;;;;;;;;;;28.75;46.75;97635.30;1761845;80;24492;-86
2021/07/30 11:57:57;;;;;;;;;;;;;;;28.80;46.71;97614.40;1763115;79;25552;-87
2021/07/30 12:00:24;;;;;;;;;;;;;;;28.93;46.82;97622.15;1768279;80;21988;-85
2021/07/30 12:02:51;;;;;;;;;;;;;;;29.00;46.77;97625.51;1739066;82;26039;-85
2021/07/30 12:05:17;;;;;;;;;;;;;;;29.02;46.61;97625.53;1745063;81;24376;-85
2021/07/30 12:07:49;;;;;;;;;;;;;;;29.07;46.45;97618.91;1735018;81;20318;-86
2021/07/30 12:10:18;;;;;;;;;;;;;;;29.13;46.41;97617.91;1760664;80;24924;-86
2021/07/30 12:12:49;;;;;;;;;;;;;;;29.15;46.19;97615.50;1766339;80;22167;-86
2021/07/30 12:15:15;;;;;;;;;;;;;;;29.18;46.00;97619.06;1762968;80;26047;-89
2021/07/30 12:17:41;;;;;;;;;;;;;;;29.15;45.78;97616.84;1769629;79;24457;-87
2021/07/30 12:20:13;;;;;;;;;;;;;;;29.18;45.67;97615.84;1728851;80;20218;-86
2021/07/30 12:22:40;;;;;;;;;;;;;;;29.26;45.66;97615.95;1737186;81;24852;-86
2021/07/30 12:25:18;;;;;;;;;;;;;;;29.37;45.69;97613.72;1767036;80;22756;-87
2021/07/30 12:27:52;;;;;;;;;;;;;;;29.44;45.52;97619.23;1768611;80;25986;-87
2021/07/30 12:30:25;;;;;;;;;;;;;;;29.55;45.36;97609.41;1773193;79;24653;-87
2021/07/30 12:32:51;;;;;;;;;;;;;;;29.64;45.11;97618.70;1768894;80;20487;-87
2021/07/30 12:35:22;;;;;;;;;;;;;;;29.74;45.02;97609.39;1771912;80;25364;-87
2021/07/30 12:38:00;;;;;;;;;;;;;;;29.78;44.80;97609.73;1772316;79;22009;-87
2021/07/30 12:40:26;;;;;;;;;;;;;;;29.77;44.57;97610.27;1770234;80;26004;-87
2021/07/30 12:42:54;;;;;;;;;;;;;;;29.81;44.59;97613.27;1766831;80;24388;-87
2021/07/30 12:45:21;;;;;;;;;;;;;;;29.75;44.37;97606.98;1768447;80;20157;-86
2021/07/30 12:47:51;;;;;;;;;;;;;;;29.67;43.92;97604.73;1768578;80;24771;-87
2021/07/30 12:50:28;;;;;;;;;;;;;;;29.68;43.69;97605.52;1771757;80;22250;-87
2021/07/30 12:53:05;;;;;;;;;;;;;;;29.69;43.43;97599.07;1764337;80;26039;-87
2021/07/30 12:55:50;;;;;;;;;;;;;;;29.68;43.01;97596.08;1773480;80;24419;-87